Terminal Aerodrome Forecast
Issued by NWS

Current Version | Previous Version | Text Only | Print | Product List | Glossary On
Versions: 1 2 3 4 5 6 7 8 9 10 11 12 13 14 15
000
FTUS46 KSEW 012344
TAFCLM
TAF
KCLM 012344Z 0200/0224 VRB03KT P6SM SCT030 OVC060
     FM020600 29004KT P6SM -RA BKN025 OVC040
     FM021000 26006KT P6SM -SHRA BKN015 OVC040
     FM021600 31006KT P6SM BKN030 OVC060
     FM022000 33005KT P6SM BKN040 BKN080=

USA.gov is the U.S. government's official web portal to all federal, state and local government web resources and services.